createdAt,value
2022-12-03T00:00:33.421Z,102510.31
2022-12-03T00:03:03.392Z,102509.16
2022-12-03T00:05:30.372Z,102510.94
2022-12-03T00:07:56.809Z,102512.97
2022-12-03T00:10:23.549Z,102497.53
2022-12-03T00:12:49.980Z,102498.63
2022-12-03T00:15:16.439Z,102511.06
2022-12-03T00:17:42.819Z,102517.03
2022-12-03T00:20:11.562Z,102511.81
2022-12-03T00:22:37.991Z,102507.25
2022-12-03T00:25:04.850Z,102508.09
2022-12-03T00:27:31.290Z,102509.59
2022-12-03T00:29:57.680Z,102512.91
2022-12-03T00:32:24.205Z,102495.44
2022-12-03T00:34:51.008Z,102498.97
2022-12-03T00:37:17.713Z,102494.88
2022-12-03T00:39:44.076Z,102494.16
2022-12-03T00:42:10.509Z,102500.19
2022-12-03T00:44:36.949Z,102495.13
2022-12-03T00:47:03.423Z,102487.22
2022-12-03T00:49:30.127Z,102493.94
2022-12-03T00:51:56.560Z,102491.72
2022-12-03T00:54:26.974Z,102493.72
2022-12-03T00:56:57.927Z,102488.31
2022-12-03T00:59:24.438Z,102485.22
2022-12-03T01:01:50.847Z,102491.28
2022-12-03T01:04:18.620Z,102493.53
2022-12-03T01:06:45.093Z,102489.16
2022-12-03T01:09:11.487Z,102479.69
2022-12-03T01:11:37.844Z,102474.38
2022-12-03T01:14:12.848Z,102487.16
2022-12-03T01:16:39.821Z,102479.91
2022-12-03T01:19:08.087Z,102480.16
2022-12-03T01:21:34.546Z,102477.47
2022-12-03T01:24:01.007Z,102473.94
2022-12-03T01:26:27.614Z,102488.00
2022-12-03T01:28:54.049Z,102474.06
2022-12-03T01:31:39.220Z,102462.56
2022-12-03T01:34:05.798Z,102473.41
2022-12-03T01:36:34.168Z,102467.44
2022-12-03T01:39:02.147Z,102468.28
2022-12-03T01:41:29.518Z,102460.97
2022-12-03T01:43:57.473Z,102470.25
2022-12-03T01:46:28.249Z,102466.72
2022-12-03T01:48:56.064Z,102472.25
2022-12-03T01:51:22.745Z,102466.63
2022-12-03T01:53:50.901Z,102452.59
2022-12-03T01:56:18.318Z,102455.91
2022-12-03T01:58:46.256Z,102454.09
2022-12-03T02:01:15.870Z,102446.09
2022-12-03T02:03:42.818Z,102448.56
2022-12-03T02:06:18.055Z,102441.84
2022-12-03T02:08:45.170Z,102449.28
2022-12-03T02:11:44.348Z,102448.88
2022-12-03T02:14:16.577Z,102436.84
2022-12-03T02:16:43.980Z,102440.91
2022-12-03T02:19:21.543Z,102441.53
2022-12-03T02:21:59.831Z,102443.13
2022-12-03T02:24:37.332Z,102446.88
2022-12-03T02:27:03.867Z,102445.66
2022-12-03T02:29:30.649Z,102442.72
2022-12-03T02:31:57.267Z,102435.06
2022-12-03T02:34:38.424Z,102447.47
2022-12-03T02:37:07.457Z,102442.72
2022-12-03T02:39:37.336Z,102442.72
2022-12-03T02:42:23.838Z,102433.56
2022-12-03T02:44:51.137Z,102439.09
2022-12-03T02:47:18.184Z,102438.97
2022-12-03T02:49:44.892Z,102430.03
2022-12-03T02:52:11.617Z,102432.16
2022-12-03T02:54:38.180Z,102419.81
2022-12-03T02:57:05.064Z,102420.44
2022-12-03T02:59:31.702Z,102426.94
2022-12-03T03:01:58.284Z,102420.03
2022-12-03T03:04:25.167Z,102418.44
2022-12-03T03:06:52.172Z,102421.09
2022-12-03T03:09:20.229Z,102409.91
2022-12-03T03:11:46.663Z,102413.84
2022-12-03T03:14:13.367Z,102412.78
2022-12-03T03:16:39.969Z,102410.66
2022-12-03T03:19:06.404Z,102403.31
2022-12-03T03:21:32.841Z,102410.78
2022-12-03T03:23:59.176Z,102407.03
2022-12-03T03:26:26.215Z,102405.34
2022-12-03T03:28:52.648Z,102404.06
2022-12-03T03:31:23.013Z,102404.38
2022-12-03T03:33:50.688Z,102403.72
2022-12-03T03:36:18.095Z,102399.94
2022-12-03T03:38:44.594Z,102403.09
2022-12-03T03:41:12.537Z,102396.81
2022-12-03T03:43:41.226Z,102407.03
2022-12-03T03:46:08.557Z,102393.84
2022-12-03T03:48:35.538Z,102398.72
2022-12-03T03:51:08.580Z,102404.06
2022-12-03T03:53:47.881Z,102397.81
2022-12-03T03:56:17.451Z,102392.34
2022-12-03T03:58:43.872Z,102382.56
2022-12-03T04:01:12.744Z,102391.31
2022-12-03T04:03:39.543Z,102387.03
2022-12-03T04:06:06.463Z,102376.72
2022-12-03T04:08:32.807Z,102383.19
2022-12-03T04:11:17.811Z,102381.38
2022-12-03T04:13:44.203Z,102395.22
2022-12-03T04:16:10.764Z,102371.94
2022-12-03T04:18:43.316Z,102371.94
2022-12-03T04:21:36.624Z,102376.28
2022-12-03T04:24:04.175Z,102378.88
2022-12-03T04:26:49.261Z,102375.66
2022-12-03T04:29:17.621Z,102370.00
2022-12-03T04:32:02.558Z,102369.91
2022-12-03T04:34:47.807Z,102377.69
2022-12-03T04:37:14.579Z,102365.94
2022-12-03T04:39:40.945Z,102373.31
2022-12-03T04:42:07.714Z,102372.66
2022-12-03T04:44:37.536Z,102368.09
2022-12-03T04:47:21.535Z,102364.06
2022-12-03T04:49:50.641Z,102359.03
2022-12-03T04:52:19.116Z,102363.44
2022-12-03T04:54:46.142Z,102354.81
2022-12-03T04:57:12.641Z,102356.09
2022-12-03T04:59:39.544Z,102354.78
2022-12-03T05:02:06.924Z,102357.25
2022-12-03T05:04:34.086Z,102354.50
2022-12-03T05:07:00.507Z,102353.13
2022-12-03T05:09:26.982Z,102359.28
2022-12-03T05:11:53.356Z,102355.53
2022-12-03T05:14:19.818Z,102354.28
2022-12-03T05:16:46.180Z,102357.88
2022-12-03T05:19:12.668Z,102354.19
2022-12-03T05:21:39.029Z,102365.78
2022-12-03T05:24:05.830Z,102350.22
2022-12-03T05:26:32.181Z,102355.47
2022-12-03T05:28:58.640Z,102348.00
2022-12-03T05:31:25.055Z,102339.59
2022-12-03T05:33:51.540Z,102345.22
2022-12-03T05:36:18.023Z,102344.91
2022-12-03T05:38:44.372Z,102351.72
2022-12-03T05:41:29.599Z,102345.75
2022-12-03T05:43:56.056Z,102353.97
2022-12-03T05:46:22.970Z,102347.88
2022-12-03T05:48:49.359Z,102344.38
2022-12-03T05:51:15.823Z,102349.81
2022-12-03T05:53:42.240Z,102341.94
2022-12-03T05:56:08.620Z,102341.09
2022-12-03T05:58:35.142Z,102337.38
2022-12-03T06:01:01.543Z,102332.06
2022-12-03T06:03:28.175Z,102329.59
2022-12-03T06:05:54.648Z,102327.78
2022-12-03T06:08:20.999Z,102320.56
2022-12-03T06:10:47.435Z,102327.38
2022-12-03T06:13:13.915Z,102322.34
2022-12-03T06:15:43.757Z,102314.03
2022-12-03T06:18:10.640Z,102323.19
2022-12-03T06:20:37.041Z,102321.72
2022-12-03T06:23:03.465Z,102313.72
2022-12-03T06:25:29.912Z,102320.22
2022-12-03T06:27:56.265Z,102317.25
2022-12-03T06:30:22.677Z,102308.38
2022-12-03T06:32:49.086Z,102312.41
2022-12-03T06:35:15.520Z,102309.09
2022-12-03T06:37:41.904Z,102313.59
2022-12-03T06:40:08.704Z,102307.03
2022-12-03T06:42:35.091Z,102313.41
2022-12-03T06:45:01.628Z,102314.47
2022-12-03T06:47:29.556Z,102312.59
2022-12-03T06:49:55.932Z,102308.75
2022-12-03T06:52:22.421Z,102311.06
2022-12-03T06:54:48.779Z,102310.09
2022-12-03T06:57:15.327Z,102310.31
2022-12-03T06:59:41.775Z,102317.66
2022-12-03T07:02:08.226Z,102309.59
2022-12-03T07:04:34.667Z,102314.59
2022-12-03T07:07:01.071Z,102312.47
2022-12-03T07:09:27.745Z,102314.19
2022-12-03T07:11:54.117Z,102319.09
2022-12-03T07:14:20.713Z,102326.09
2022-12-03T07:16:47.508Z,102318.44
2022-12-03T07:19:14.210Z,102319.59
2022-12-03T07:21:41.042Z,102318.28
2022-12-03T07:24:08.127Z,102312.34
2022-12-03T07:26:34.501Z,102310.31
2022-12-03T07:29:01.072Z,102316.78
2022-12-03T07:31:27.505Z,102316.38
2022-12-03T07:33:54.674Z,102319.66
2022-12-03T07:36:21.051Z,102323.00
2022-12-03T07:38:47.444Z,102324.03
2022-12-03T07:41:15.422Z,102319.91
2022-12-03T07:43:41.801Z,102318.50
2022-12-03T07:46:08.481Z,102318.94
2022-12-03T07:48:35.049Z,102324.28
2022-12-03T07:51:01.433Z,102323.84
2022-12-03T07:53:27.897Z,102317.34
2022-12-03T07:55:54.317Z,102313.53
2022-12-03T07:58:20.750Z,102311.81
2022-12-03T08:00:47.334Z,102307.69
2022-12-03T08:03:13.754Z,102316.31
2022-12-03T08:05:40.099Z,102315.97
2022-12-03T08:08:06.676Z,102322.25
2022-12-03T08:10:33.144Z,102313.84
2022-12-03T08:12:59.602Z,102317.25
2022-12-03T08:15:33.685Z,102321.94
2022-12-03T08:18:12.740Z,102315.75
2022-12-03T08:20:40.985Z,102302.88
2022-12-03T08:23:14.656Z,102310.34
2022-12-03T08:25:42.244Z,102303.53
2022-12-03T08:28:26.689Z,102308.66
2022-12-03T08:31:01.321Z,102308.19
2022-12-03T08:33:33.457Z,102304.81
2022-12-03T08:36:01.876Z,102302.81
2022-12-03T08:38:29.601Z,102290.69
2022-12-03T08:40:56.027Z,102290.69
2022-12-03T08:43:24.665Z,102291.41
2022-12-03T08:45:53.418Z,102296.94
2022-12-03T08:48:34.202Z,102292.19
2022-12-03T08:51:13.498Z,102288.34
2022-12-03T08:53:47.600Z,102297.38
2022-12-03T08:56:25.776Z,102297.59
2022-12-03T08:58:55.616Z,102293.22
2022-12-03T09:01:33.680Z,102293.03
2022-12-03T09:04:27.693Z,102295.25
2022-12-03T09:06:54.891Z,102299.19
2022-12-03T09:09:22.828Z,102304.06
2022-12-03T09:11:50.114Z,102293.03
2022-12-03T09:14:18.839Z,102291.56
2022-12-03T09:16:45.649Z,102292.81
2022-12-03T09:19:12.151Z,102291.31
2022-12-03T09:21:38.555Z,102279.19
2022-12-03T09:24:05.189Z,102289.94
2022-12-03T09:26:31.531Z,102288.97
2022-12-03T09:28:57.938Z,102290.25
2022-12-03T09:31:24.483Z,102286.56
2022-12-03T09:33:50.904Z,102289.50
2022-12-03T09:36:17.312Z,102284.75
2022-12-03T09:38:47.760Z,102296.75
2022-12-03T09:41:14.911Z,102293.56
2022-12-03T09:44:03.140Z,102290.47
2022-12-03T09:46:30.006Z,102302.81
2022-12-03T09:48:56.619Z,102285.03
2022-12-03T09:51:29.488Z,102292.72
2022-12-03T09:53:55.971Z,102286.84
2022-12-03T09:56:23.434Z,102288.34
2022-12-03T09:58:50.378Z,102290.72
2022-12-03T10:01:17.680Z,102294.63
2022-12-03T10:03:47.735Z,102285.91
2022-12-03T10:06:18.213Z,102292.94
2022-12-03T10:08:48.331Z,102283.91
2022-12-03T10:11:15.784Z,102284.22
2022-12-03T10:13:43.370Z,102290.47
2022-12-03T10:16:13.135Z,102293.25
2022-12-03T10:18:51.979Z,102279.44
2022-12-03T10:21:32.161Z,102282.81
2022-12-03T10:24:17.003Z,102279.84
2022-12-03T10:26:44.750Z,102284.63
2022-12-03T10:29:18.926Z,102286.97
2022-12-03T10:31:48.888Z,102282.38
2022-12-03T10:34:24.205Z,102283.47
2022-12-03T10:37:10.046Z,102272.06
2022-12-03T10:39:56.941Z,102274.72
2022-12-03T10:42:24.872Z,102276.66
2022-12-03T10:45:06.470Z,102265.06
2022-12-03T10:47:32.990Z,102268.56
2022-12-03T10:50:05.564Z,102262.41
2022-12-03T10:52:32.576Z,102256.06
2022-12-03T10:54:58.972Z,102245.63
2022-12-03T10:57:25.492Z,102245.19
2022-12-03T10:59:52.051Z,102243.06
2022-12-03T11:02:24.152Z,102237.75
2022-12-03T11:04:51.540Z,102242.44
2022-12-03T11:07:20.258Z,102240.19
2022-12-03T11:09:49.659Z,102238.94
2022-12-03T11:12:28.045Z,102231.81
2022-12-03T11:14:55.028Z,102230.00
2022-12-03T11:17:42.295Z,102232.97
2022-12-03T11:20:33.338Z,102232.44
2022-12-03T11:22:59.895Z,102235.16
2022-12-03T11:25:29.063Z,102232.00
2022-12-03T11:28:13.845Z,102226.56
2022-12-03T11:30:53.355Z,102229.22
2022-12-03T11:33:24.647Z,102221.81
2022-12-03T11:36:03.407Z,102217.34
2022-12-03T11:38:52.970Z,102220.72
2022-12-03T11:41:31.707Z,102206.25
2022-12-03T11:43:59.611Z,102204.44
2022-12-03T11:46:46.429Z,102210.09
2022-12-03T11:49:34.115Z,102205.75
2022-12-03T11:52:02.474Z,102202.88
2022-12-03T11:54:34.459Z,102203.91
2022-12-03T11:57:01.367Z,102205.72
2022-12-03T11:59:28.018Z,102195.97
2022-12-03T12:01:54.397Z,102194.78
2022-12-03T12:04:35.653Z,102193.94
2022-12-03T12:07:02.620Z,102193.75
2022-12-03T12:09:50.535Z,102186.50
2022-12-03T12:12:40.672Z,102191.59
2022-12-03T12:15:32.851Z,102178.97
2022-12-03T12:18:36.735Z,102182.88
2022-12-03T12:21:43.679Z,102180.97
2022-12-03T12:24:43.053Z,102177.47
2022-12-03T12:27:13.971Z,102163.44
2022-12-03T12:29:42.106Z,102165.03
2022-12-03T12:32:08.526Z,102160.34
2022-12-03T12:34:40.253Z,102161.41
2022-12-03T12:37:17.357Z,102155.44
2022-12-03T12:39:43.801Z,102161.84
2022-12-03T12:42:29.788Z,102149.00
2022-12-03T12:45:16.269Z,102155.16
2022-12-03T12:47:48.284Z,102149.97
2022-12-03T12:50:16.516Z,102145.50
2022-12-03T12:52:54.660Z,102145.50
2022-12-03T12:55:22.885Z,102147.63
2022-12-03T12:57:50.502Z,102147.31
2022-12-03T13:00:21.224Z,102151.53
2022-12-03T13:03:01.115Z,102142.38
2022-12-03T13:05:38.229Z,102140.34
2022-12-03T13:08:21.326Z,102138.31
2022-12-03T13:10:48.368Z,102137.94
2022-12-03T13:13:23.898Z,102130.47
2022-12-03T13:16:01.376Z,102128.25
2022-12-03T13:18:33.199Z,102133.91
2022-12-03T13:20:59.764Z,102130.19
2022-12-03T13:23:31.056Z,102123.38
2022-12-03T13:26:22.331Z,102125.06
2022-12-03T13:28:51.892Z,102117.94
2022-12-03T13:31:25.550Z,102121.25
2022-12-03T13:33:53.295Z,102131.03
2022-12-03T13:36:20.903Z,102119.13
2022-12-03T13:38:47.508Z,102122.66
2022-12-03T13:41:36.948Z,102119.69
2022-12-03T13:44:13.417Z,102120.47
2022-12-03T13:46:39.850Z,102121.31
2022-12-03T13:49:16.253Z,102123.19
2022-12-03T13:51:43.510Z,102128.50
2022-12-03T13:54:16.228Z,102118.22
2022-12-03T13:56:42.706Z,102125.34
2022-12-03T13:59:09.277Z,102124.16
2022-12-03T14:01:36.240Z,102114.72
2022-12-03T14:04:03.709Z,102117.56
2022-12-03T14:06:30.467Z,102114.00
2022-12-03T14:08:56.864Z,102103.91
2022-12-03T14:11:41.911Z,102104.75
2022-12-03T14:14:08.355Z,102093.66
2022-12-03T14:16:34.751Z,102091.66
2022-12-03T14:19:01.213Z,102101.09
2022-12-03T14:21:27.663Z,102095.78
2022-12-03T14:23:54.087Z,102099.41
2022-12-03T14:26:20.506Z,102090.47
2022-12-03T14:28:47.013Z,102096.94
2022-12-03T14:31:13.417Z,102100.34
2022-12-03T14:33:39.799Z,102092.03
2022-12-03T14:36:06.360Z,102092.03
2022-12-03T14:38:32.799Z,102087.81
2022-12-03T14:40:59.184Z,102080.31
2022-12-03T14:43:25.561Z,102091.78
2022-12-03T14:45:52.047Z,102087.19
2022-12-03T14:48:20.621Z,102075.91
2022-12-03T14:50:47.030Z,102077.66
2022-12-03T14:53:13.401Z,102083.16
2022-12-03T14:55:39.824Z,102076.16
2022-12-03T14:58:06.207Z,102076.69
2022-12-03T15:00:32.629Z,102072.97
2022-12-03T15:02:59.061Z,102076.13
2022-12-03T15:05:28.892Z,102067.41
2022-12-03T15:07:55.874Z,102065.94
2022-12-03T15:10:22.395Z,102069.97
2022-12-03T15:12:48.752Z,102073.69
2022-12-03T15:15:15.212Z,102078.63
2022-12-03T15:17:41.759Z,102081.13
2022-12-03T15:20:08.749Z,102080.94
2022-12-03T15:22:35.100Z,102074.88
2022-12-03T15:25:03.297Z,102079.47
2022-12-03T15:27:29.780Z,102083.22
2022-12-03T15:29:56.475Z,102086.56
2022-12-03T15:32:23.082Z,102078.75
2022-12-03T15:34:51.285Z,102086.84
2022-12-03T15:37:17.751Z,102092.31
2022-12-03T15:39:48.378Z,102088.59
2022-12-03T15:42:15.359Z,102091.38
2022-12-03T15:44:41.716Z,102087.75
2022-12-03T15:47:08.144Z,102096.16
2022-12-03T15:49:34.588Z,102097.00
2022-12-03T15:52:01.079Z,102096.69
2022-12-03T15:54:27.516Z,102100.19
2022-12-03T15:56:57.245Z,102089.75
2022-12-03T15:59:24.159Z,102084.97
2022-12-03T16:01:50.612Z,102078.19
2022-12-03T16:04:17.196Z,102083.41
2022-12-03T16:06:43.572Z,102084.25
2022-12-03T16:09:09.978Z,102084.97
2022-12-03T16:11:36.411Z,102079.16
2022-12-03T16:14:02.847Z,102081.38
2022-12-03T16:16:29.365Z,102077.78
2022-12-03T16:18:55.819Z,102078.41
2022-12-03T16:21:26.627Z,102080.22
2022-12-03T16:23:53.697Z,102081.91
2022-12-03T16:26:20.069Z,102077.13
2022-12-03T16:28:47.836Z,102083.91
2022-12-03T16:31:14.302Z,102088.69
2022-12-03T16:33:40.694Z,102082.63
2022-12-03T16:36:07.297Z,102086.16
2022-12-03T16:38:33.726Z,102080.53
2022-12-03T16:41:01.210Z,102080.63
2022-12-03T16:43:27.999Z,102075.97
2022-12-03T16:46:20.143Z,102074.47
2022-12-03T16:48:48.172Z,102067.56
2022-12-03T16:51:15.408Z,102071.38
2022-12-03T16:53:41.977Z,102065.88
2022-12-03T16:56:08.743Z,102067.69
2022-12-03T16:58:35.148Z,102067.16
2022-12-03T17:01:01.787Z,102064.50
2022-12-03T17:03:33.677Z,102064.50
2022-12-03T17:06:01.152Z,102065.34
2022-12-03T17:08:27.811Z,102059.50
2022-12-03T17:10:54.344Z,102060.88
2022-12-03T17:13:23.038Z,102066.50
2022-12-03T17:15:50.514Z,102065.47
2022-12-03T17:18:17.116Z,102067.69
2022-12-03T17:20:43.547Z,102074.38
2022-12-03T17:23:10.085Z,102072.47
2022-12-03T17:25:36.505Z,102071.50
2022-12-03T17:28:02.952Z,102071.06
2022-12-03T17:30:29.316Z,102075.84
2022-12-03T17:32:55.719Z,102069.06
2022-12-03T17:35:22.133Z,102069.59
2022-12-03T17:37:48.574Z,102068.97
2022-12-03T17:40:15.582Z,102074.38
2022-12-03T17:42:41.982Z,102073.41
2022-12-03T17:45:08.737Z,102066.72
2022-12-03T17:47:35.126Z,102060.13
2022-12-03T17:50:01.803Z,102068.22
2022-12-03T17:52:28.190Z,102072.03
2022-12-03T17:55:13.193Z,102072.47
2022-12-03T17:57:40.979Z,102064.50
2022-12-03T18:00:08.091Z,102072.88
2022-12-03T18:02:41.663Z,102069.50
2022-12-03T18:05:08.728Z,102067.34
2022-12-03T18:07:35.288Z,102063.63
2022-12-03T18:10:01.786Z,102065.88
2022-12-03T18:12:28.296Z,102067.56
2022-12-03T18:14:54.731Z,102063.22
2022-12-03T18:17:21.172Z,102049.97
2022-12-03T18:19:47.564Z,102054.00
2022-12-03T18:22:14.270Z,102055.91
2022-12-03T18:24:40.822Z,102053.78
2022-12-03T18:27:07.441Z,102048.66
2022-12-03T18:29:33.848Z,102044.41
2022-12-03T18:32:00.293Z,102036.38
2022-12-03T18:34:26.958Z,102045.50
2022-12-03T18:36:53.490Z,102045.69
2022-12-03T18:39:32.931Z,102048.66
2022-12-03T18:41:59.316Z,102046.97
2022-12-03T18:44:25.910Z,102045.25
2022-12-03T18:46:53.843Z,102044.00
2022-12-03T18:49:20.476Z,102029.13
2022-12-03T18:51:48.303Z,102033.72
2022-12-03T18:54:15.043Z,102033.16
2022-12-03T18:56:41.631Z,102036.56
2022-12-03T18:59:08.758Z,102031.59
2022-12-03T19:01:35.435Z,102030.31
2022-12-03T19:04:02.347Z,102032.00
2022-12-03T19:06:30.361Z,102026.59
2022-12-03T19:08:56.851Z,102032.63
2022-12-03T19:11:23.686Z,102029.91
2022-12-03T19:13:50.268Z,102032.44
2022-12-03T19:16:17.167Z,102031.06
2022-12-03T19:18:43.683Z,102026.41
2022-12-03T19:21:12.799Z,102024.28
2022-12-03T19:23:39.979Z,102027.44
2022-12-03T19:26:08.544Z,102039.53
2022-12-03T19:28:36.072Z,102030.09
2022-12-03T19:31:08.112Z,102037.41
2022-12-03T19:33:35.048Z,102032.75
2022-12-03T19:36:02.645Z,102032.31
2022-12-03T19:38:30.093Z,102032.75
2022-12-03T19:41:07.195Z,102032.00
2022-12-03T19:43:36.334Z,102035.09
2022-12-03T19:46:05.198Z,102026.03
2022-12-03T19:48:32.431Z,102031.34
2022-12-03T19:51:26.231Z,102036.31
2022-12-03T19:53:48.540Z,102033.56
2022-12-03T19:56:18.459Z,102032.09
2022-12-03T19:58:46.067Z,102027.19
2022-12-03T20:01:16.008Z,102031.25
2022-12-03T20:03:45.330Z,102025.84
2022-12-03T20:06:12.913Z,102024.88
2022-12-03T20:08:39.304Z,102029.44
2022-12-03T20:11:23.764Z,102030.28
2022-12-03T20:13:55.622Z,102029.25
2022-12-03T20:16:23.547Z,102031.47
2022-12-03T20:18:55.570Z,102033.28
2022-12-03T20:21:21.973Z,102026.16
2022-12-03T20:23:48.390Z,102029.66
2022-12-03T20:26:17.601Z,102016.91
2022-12-03T20:28:44.662Z,102021.28
2022-12-03T20:31:13.671Z,102007.38
2022-12-03T20:33:43.169Z,102005.47
2022-12-03T20:36:11.458Z,102006.53
2022-12-03T20:38:38.190Z,102010.25
2022-12-03T20:41:10.163Z,101993.28
2022-12-03T20:43:36.674Z,101995.63
2022-12-03T20:46:15.419Z,102003.47
2022-12-03T20:48:42.924Z,102005.78
2022-12-03T20:51:11.814Z,101995.63
2022-12-03T20:53:38.966Z,101997.81
2022-12-03T20:56:05.995Z,102000.28
2022-12-03T20:58:33.219Z,101990.63
2022-12-03T21:01:16.198Z,102000.91
2022-12-03T21:03:43.675Z,101992.72
2022-12-03T21:06:10.261Z,101986.19
2022-12-03T21:08:41.410Z,101995.81
2022-12-03T21:11:20.895Z,101981.59
2022-12-03T21:13:47.816Z,101987.88
2022-12-03T21:16:39.481Z,101986.50
2022-12-03T21:19:08.056Z,101994.56
2022-12-03T21:21:35.356Z,101993.16
2022-12-03T21:24:01.792Z,101984.91
2022-12-03T21:26:28.304Z,101981.84
2022-12-03T21:28:54.731Z,101989.28
2022-12-03T21:31:25.162Z,101985.13
2022-12-03T21:33:55.778Z,101980.75
2022-12-03T21:36:23.420Z,101979.28
2022-12-03T21:38:49.866Z,101978.88
2022-12-03T21:41:17.302Z,101972.41
2022-12-03T21:43:44.320Z,101976.28
2022-12-03T21:47:09.876Z,101971.63
2022-12-03T21:49:01.076Z,101974.72
2022-12-03T21:51:27.503Z,101964.75
2022-12-03T21:53:53.927Z,101973.97
2022-12-03T21:56:20.539Z,101974.81
2022-12-03T21:58:46.972Z,101967.19
2022-12-03T22:01:21.982Z,101968.78
2022-12-03T22:03:48.892Z,101968.47
2022-12-03T22:06:15.862Z,101964.13
2022-12-03T22:08:43.155Z,101971.00
2022-12-03T22:11:18.707Z,101970.78
2022-12-03T22:13:45.489Z,101974.19
2022-12-03T22:16:15.226Z,101966.75
2022-12-03T22:18:42.334Z,101966.66
2022-12-03T22:21:12.710Z,101964.44
2022-12-03T22:23:39.964Z,101965.28
2022-12-03T22:26:09.084Z,101968.25
2022-12-03T22:28:35.512Z,101968.88
2022-12-03T22:31:09.283Z,101974.41
2022-12-03T22:33:36.450Z,101974.53
2022-12-03T22:36:18.081Z,101978.22
2022-12-03T22:38:46.971Z,101974.53
2022-12-03T22:41:14.149Z,101965.81
2022-12-03T22:43:40.658Z,101971.53
2022-12-03T22:46:12.147Z,101973.75
2022-12-03T22:48:40.126Z,101974.81
2022-12-03T22:51:14.168Z,101969.75
2022-12-03T22:53:40.647Z,101973.31
2022-12-03T22:56:07.124Z,101964.31
2022-12-03T22:58:33.772Z,101955.28
2022-12-03T23:01:03.086Z,101959.75
2022-12-03T23:03:30.208Z,101961.88
2022-12-03T23:05:56.662Z,101962.31
2022-12-03T23:08:23.205Z,101959.22
2022-12-03T23:10:52.197Z,101963.03
2022-12-03T23:13:20.193Z,101969.69
2022-12-03T23:15:49.039Z,101965.81
2022-12-03T23:18:15.473Z,101961.34
2022-12-03T23:20:45.026Z,101960.19
2022-12-03T23:23:11.557Z,101958.50
2022-12-03T23:25:38.285Z,101960.94
2022-12-03T23:28:05.501Z,101959.53
2022-12-03T23:30:36.068Z,101966.25
2022-12-03T23:33:03.860Z,101967.19
2022-12-03T23:35:30.313Z,101965.28
2022-12-03T23:37:56.763Z,101959.13
2022-12-03T23:40:23.129Z,101952.75
2022-12-03T23:42:49.760Z,101957.72
2022-12-03T23:45:16.140Z,101948.94
2022-12-03T23:47:42.542Z,101951.91
2022-12-03T23:50:10.924Z,101949.56
2022-12-03T23:52:37.336Z,101952.03
2022-12-03T23:55:03.975Z,101947.97
2022-12-03T23:57:30.385Z,101954.44
2022-12-03T23:59:57.060Z,101955.19
